Station Historical Data
Daily Summary for February 13, 2018 Units:  Both    English   Metric
« Previous Day
Next Day »
Daily Weekly Monthly Yearly Custom
  High: Low: Average:
Temperature: 38.4 °F /  3.6 °C 27.9 °F /  -2.3 °C 33.8 °F /  1 °C
Dew Point: 30.7 °F /  -0.7 °C 20.2 °F /  -6.6 °C 24.6 °F /  -4.1 °C
Humidity: 82 % 57 % 69 %
Wind Speed: 9.0 mph /  14.5 km/h - 0.5 mph /  0.8 km/h
Wind Gust: 10.0 mph /  16.1 km/h - -
Wind:- - ESE
Pressure: 30.86 in /  1044.9 hPa 30.60 in /  1036.1 hPa -
Precipitation: 0.00 in /  0 mm    
Historical Graphs
 
 
Tabular Data for February 13, 2018
Time Temperature Dew Point Pressure Wind Wind Speed Wind Gust Humidity Rainfall Rate (Hourly)
00:03 30.5 °F /  -0.8 °C 24.2 °F /  -4.3 °C 30.73 in /  1040.5 hPa Calm     77 % 0.00 in /  0 mm
00:08 30.3 °F /  -0.9 °C 24.3 °F /  -4.3 °C 30.73 in /  1040.5 hPa Calm     78 % 0.00 in /  0 mm
00:13 30.1 °F /  -1.1 °C 24.1 °F /  -4.4 °C 30.73 in /  1040.5 hPa Calm     78 % 0.00 in /  0 mm
00:18 29.9 °F /  -1.2 °C 24.2 °F /  -4.3 °C 30.73 in /  1040.5 hPa Calm     79 % 0.00 in /  0 mm
00:23 29.7 °F /  -1.3 °C 24.3 °F /  -4.3 °C 30.73 in /  1040.5 hPa Calm     80 % 0.00 in /  0 mm
00:28 29.6 °F /  -1.3 °C 24.2 °F /  -4.3 °C 30.73 in /  1040.5 hPa Calm     80 % 0.00 in /  0 mm
00:33 29.4 °F /  -1.4 °C 24.0 °F /  -4.4 °C 30.73 in /  1040.5 hPa Calm     80 % 0.00 in /  0 mm
00:38 29.2 °F /  -1.6 °C 23.8 °F /  -4.6 °C 30.73 in /  1040.5 hPa Calm     80 % 0.00 in /  0 mm
00:43 29.1 °F /  -1.6 °C 24.0 °F /  -4.4 °C 30.73 in /  1040.5 hPa Calm     81 % 0.00 in /  0 mm
00:48 29.0 °F /  -1.7 °C 23.9 °F /  -4.5 °C 30.74 in /  1040.9 hPa Calm     81 % 0.00 in /  0 mm
00:53 28.9 °F /  -1.7 °C 23.8 °F /  -4.6 °C 30.74 in /  1040.9 hPa Calm     81 % 0.00 in /  0 mm
00:58 28.8 °F /  -1.8 °C 23.7 °F /  -4.6 °C 30.74 in /  1040.9 hPa Calm     81 % 0.00 in /  0 mm
01:03 28.7 °F /  -1.8 °C 23.9 °F /  -4.5 °C 30.74 in /  1040.9 hPa Calm     82 % 0.00 in /  0 mm
01:08 28.7 °F /  -1.8 °C 23.9 °F /  -4.5 °C 30.74 in /  1040.9 hPa Calm     82 % 0.00 in /  0 mm
01:13 28.6 °F /  -1.9 °C 23.8 °F /  -4.6 °C 30.73 in /  1040.5 hPa Calm     82 % 0.00 in /  0 mm
01:18 28.5 °F /  -1.9 °C 23.4 °F /  -4.8 °C 30.73 in /  1040.5 hPa Calm   1.0 mph /  1.6 km/h 81 % 0.00 in /  0 mm
01:23 28.5 °F /  -1.9 °C 23.4 °F /  -4.8 °C 30.74 in /  1040.9 hPa Calm   1.0 mph /  1.6 km/h 81 % 0.00 in /  0 mm
01:28 28.5 °F /  -1.9 °C 23.4 °F /  -4.8 °C 30.74 in /  1040.9 hPa Calm   1.0 mph /  1.6 km/h 81 % 0.00 in /  0 mm
01:33 28.5 °F /  -1.9 °C 23.4 °F /  -4.8 °C 30.74 in /  1040.9 hPa Calm   1.0 mph /  1.6 km/h 81 % 0.00 in /  0 mm
01:38 28.5 °F /  -1.9 °C 23.4 °F /  -4.8 °C 30.74 in /  1040.9 hPa Calm     81 % 0.00 in /  0 mm
01:43 28.7 °F /  -1.8 °C 23.6 °F /  -4.7 °C 30.74 in /  1040.9 hPa Calm     81 % 0.00 in /  0 mm
01:48 28.9 °F /  -1.7 °C 23.8 °F /  -4.6 °C 30.74 in /  1040.9 hPa Calm   2.0 mph /  3.2 km/h 81 % 0.00 in /  0 mm
01:53 28.9 °F /  -1.7 °C 23.5 °F /  -4.7 °C 30.74 in /  1040.9 hPa Calm   2.0 mph /  3.2 km/h 80 % 0.00 in /  0 mm
01:58 28.9 °F /  -1.7 °C 23.5 °F /  -4.7 °C 30.74 in /  1040.9 hPa WNW 1.0 mph /  1.6 km/h 2.0 mph /  3.2 km/h 80 % 0.00 in /  0 mm
02:03 29.0 °F /  -1.7 °C 23.3 °F /  -4.8 °C 30.74 in /  1040.9 hPa Calm   2.0 mph /  3.2 km/h 79 % 0.00 in /  0 mm
02:08 29.2 °F /  -1.6 °C 23.2 °F /  -4.9 °C 30.75 in /  1041.2 hPa Calm   2.0 mph /  3.2 km/h 78 % 0.00 in /  0 mm
02:13 29.4 °F /  -1.4 °C 23.1 °F /  -4.9 °C 30.74 in /  1040.9 hPa Calm   2.0 mph /  3.2 km/h 77 % 0.00 in /  0 mm
02:18 29.7 °F /  -1.3 °C 22.8 °F /  -5.1 °C 30.75 in /  1041.2 hPa Calm   2.0 mph /  3.2 km/h 75 % 0.00 in /  0 mm
02:23 30.0 °F /  -1.1 °C 22.8 °F /  -5.1 °C 30.75 in /  1041.2 hPa Calm   2.0 mph /  3.2 km/h 74 % 0.00 in /  0 mm
02:28 30.3 °F /  -0.9 °C 22.7 °F /  -5.2 °C 30.75 in /  1041.2 hPa Calm   2.0 mph /  3.2 km/h 73 % 0.00 in /  0 mm
02:33 30.5 °F /  -0.8 °C 22.6 °F /  -5.2 °C 30.75 in /  1041.2 hPa Calm   3.0 mph /  4.8 km/h 72 % 0.00 in /  0 mm
02:38 30.5 °F /  -0.8 °C 22.6 °F /  -5.2 °C 30.75 in /  1041.2 hPa Calm   3.0 mph /  4.8 km/h 72 % 0.00 in /  0 mm
02:43 30.6 °F /  -0.8 °C 22.7 °F /  -5.2 °C 30.75 in /  1041.2 hPa Calm   3.0 mph /  4.8 km/h 72 % 0.00 in /  0 mm
02:48 30.5 °F /  -0.8 °C 22.3 °F /  -5.4 °C 30.75 in /  1041.2 hPa WNW 2.0 mph /  3.2 km/h 3.0 mph /  4.8 km/h 71 % 0.00 in /  0 mm
02:53 30.7 °F /  -0.7 °C 22.1 °F /  -5.5 °C 30.75 in /  1041.2 hPa Calm   2.0 mph /  3.2 km/h 70 % 0.00 in /  0 mm
02:58 30.8 °F /  -0.7 °C 21.9 °F /  -5.6 °C 30.75 in /  1041.2 hPa Calm   3.0 mph /  4.8 km/h 69 % 0.00 in /  0 mm
03:03 31.0 °F /  -0.6 °C 22.1 °F /  -5.5 °C 30.75 in /  1041.2 hPa Calm   3.0 mph /  4.8 km/h 69 % 0.00 in /  0 mm
03:08 31.1 °F /  -0.5 °C 21.8 °F /  -5.7 °C 30.75 in /  1041.2 hPa Calm   3.0 mph /  4.8 km/h 68 % 0.00 in /  0 mm
03:13 31.1 °F /  -0.5 °C 22.2 °F /  -5.4 °C 30.75 in /  1041.2 hPa Calm   3.0 mph /  4.8 km/h 69 % 0.00 in /  0 mm
03:18 31.3 °F /  -0.4 °C 22.0 °F /  -5.6 °C 30.75 in /  1041.2 hPa Calm   4.0 mph /  6.4 km/h 68 % 0.00 in /  0 mm
03:23 31.5 °F /  -0.3 °C 21.9 °F /  -5.6 °C 30.75 in /  1041.2 hPa Calm   4.0 mph /  6.4 km/h 67 % 0.00 in /  0 mm
03:28 31.7 °F /  -0.2 °C 22.1 °F /  -5.5 °C 30.75 in /  1041.2 hPa Calm   4.0 mph /  6.4 km/h 67 % 0.00 in /  0 mm
03:33 31.8 °F /  -0.1 °C 21.8 °F /  -5.7 °C 30.75 in /  1041.2 hPa Calm   4.0 mph /  6.4 km/h 66 % 0.00 in /  0 mm
03:38 31.8 °F /  -0.1 °C 21.4 °F /  -5.9 °C 30.75 in /  1041.2 hPa Calm   4.0 mph /  6.4 km/h 65 % 0.00 in /  0 mm
03:43 31.8 °F /  -0.1 °C 21.4 °F /  -5.9 °C 30.76 in /  1041.5 hPa Calm   4.0 mph /  6.4 km/h 65 % 0.00 in /  0 mm
03:48 31.9 °F /  -0.1 °C 21.9 °F /  -5.6 °C 30.76 in /  1041.5 hPa Calm   4.0 mph /  6.4 km/h 66 % 0.00 in /  0 mm
03:53 31.7 °F /  -0.2 °C 21.7 °F /  -5.7 °C 30.77 in /  1041.9 hPa Calm   3.0 mph /  4.8 km/h 66 % 0.00 in /  0 mm
03:59 31.6 °F /  -0.2 °C 21.5 °F /  -5.8 °C 30.77 in /  1041.9 hPa Calm   3.0 mph /  4.8 km/h 66 % 0.00 in /  0 mm
04:03 31.4 °F /  -0.3 °C 21.3 °F /  -5.9 °C 30.77 in /  1041.9 hPa Calm   3.0 mph /  4.8 km/h 66 % 0.00 in /  0 mm
04:09 31.1 °F /  -0.5 °C 21.4 °F /  -5.9 °C 30.77 in /  1041.9 hPa Calm     67 % 0.00 in /  0 mm
04:14 30.8 °F /  -0.7 °C 21.1 °F /  -6.1 °C 30.77 in /  1041.9 hPa Calm     67 % 0.00 in /  0 mm
04:19 30.5 °F /  -0.8 °C 21.2 °F /  -6 °C 30.77 in /  1041.9 hPa Calm     68 % 0.00 in /  0 mm
04:24 30.1 °F /  -1.1 °C 21.2 °F /  -6 °C 30.77 in /  1041.9 hPa Calm   1.0 mph /  1.6 km/h 69 % 0.00 in /  0 mm
04:29 29.9 °F /  -1.2 °C 21.0 °F /  -6.1 °C 30.78 in /  1042.2 hPa Calm   2.0 mph /  3.2 km/h 69 % 0.00 in /  0 mm
04:34 29.9 °F /  -1.2 °C 21.0 °F /  -6.1 °C 30.77 in /  1041.9 hPa Calm   3.0 mph /  4.8 km/h 69 % 0.00 in /  0 mm
04:39 30.0 °F /  -1.1 °C 21.1 °F /  -6.1 °C 30.77 in /  1041.9 hPa Calm   3.0 mph /  4.8 km/h 69 % 0.00 in /  0 mm
04:44 30.1 °F /  -1.1 °C 21.2 °F /  -6 °C 30.78 in /  1042.2 hPa Calm   3.0 mph /  4.8 km/h 69 % 0.00 in /  0 mm
04:49 30.1 °F /  -1.1 °C 21.2 °F /  -6 °C 30.78 in /  1042.2 hPa Calm   3.0 mph /  4.8 km/h 69 % 0.00 in /  0 mm
04:54 30.0 °F /  -1.1 °C 20.7 °F /  -6.3 °C 30.78 in /  1042.2 hPa Calm   3.0 mph /  4.8 km/h 68 % 0.00 in /  0 mm
04:59 30.0 °F /  -1.1 °C 20.7 °F /  -6.3 °C 30.78 in /  1042.2 hPa Calm   2.0 mph /  3.2 km/h 68 % 0.00 in /  0 mm
05:04 29.9 °F /  -1.2 °C 20.6 °F /  -6.3 °C 30.79 in /  1042.5 hPa Calm   2.0 mph /  3.2 km/h 68 % 0.00 in /  0 mm
05:09 29.7 °F /  -1.3 °C 20.8 °F /  -6.2 °C 30.79 in /  1042.5 hPa Calm   2.0 mph /  3.2 km/h 69 % 0.00 in /  0 mm
05:14 29.5 °F /  -1.4 °C 20.6 °F /  -6.3 °C 30.80 in /  1042.9 hPa Calm   1.0 mph /  1.6 km/h 69 % 0.00 in /  0 mm
05:19 29.3 °F /  -1.5 °C 20.4 °F /  -6.4 °C 30.80 in /  1042.9 hPa Calm   1.0 mph /  1.6 km/h 69 % 0.00 in /  0 mm
05:24 29.0 °F /  -1.7 °C 20.4 °F /  -6.4 °C 30.79 in /  1042.5 hPa Calm   1.0 mph /  1.6 km/h 70 % 0.00 in /  0 mm
05:29 28.8 °F /  -1.8 °C 20.2 °F /  -6.6 °C 30.80 in /  1042.9 hPa Calm   1.0 mph /  1.6 km/h 70 % 0.00 in /  0 mm
05:34 28.6 °F /  -1.9 °C 20.4 °F /  -6.4 °C 30.80 in /  1042.9 hPa Calm   2.0 mph /  3.2 km/h 71 % 0.00 in /  0 mm
05:39 28.4 °F /  -2 °C 20.2 °F /  -6.6 °C 30.80 in /  1042.9 hPa Calm   2.0 mph /  3.2 km/h 71 % 0.00 in /  0 mm
05:44 28.3 °F /  -2.1 °C 20.4 °F /  -6.4 °C 30.80 in /  1042.9 hPa Calm   2.0 mph /  3.2 km/h 72 % 0.00 in /  0 mm
05:49 28.3 °F /  -2.1 °C 20.4 °F /  -6.4 °C 30.80 in /  1042.9 hPa Calm   2.0 mph /  3.2 km/h 72 % 0.00 in /  0 mm
05:54 28.2 °F /  -2.1 °C 20.3 °F /  -6.5 °C 30.81 in /  1043.2 hPa Calm   1.0 mph /  1.6 km/h 72 % 0.00 in /  0 mm
05:59 28.1 °F /  -2.2 °C 20.2 °F /  -6.6 °C 30.81 in /  1043.2 hPa Calm   1.0 mph /  1.6 km/h 72 % 0.00 in /  0 mm
06:04 28.1 °F /  -2.2 °C 20.2 °F /  -6.6 °C 30.81 in /  1043.2 hPa Calm   2.0 mph /  3.2 km/h 72 % 0.00 in /  0 mm
06:09 28.1 °F /  -2.2 °C 20.2 °F /  -6.6 °C 30.81 in /  1043.2 hPa Calm   2.0 mph /  3.2 km/h 72 % 0.00 in /  0 mm
06:14 28.1 °F /  -2.2 °C 20.6 °F /  -6.3 °C 30.81 in /  1043.2 hPa Calm   3.0 mph /  4.8 km/h 73 % 0.00 in /  0 mm
06:19 28.2 °F /  -2.1 °C 20.7 °F /  -6.3 °C 30.81 in /  1043.2 hPa Calm   3.0 mph /  4.8 km/h 73 % 0.00 in /  0 mm
06:24 28.3 °F /  -2.1 °C 20.8 °F /  -6.2 °C 30.81 in /  1043.2 hPa Calm   3.0 mph /  4.8 km/h 73 % 0.00 in /  0 mm
06:29 28.3 °F /  -2.1 °C 20.8 °F /  -6.2 °C 30.82 in /  1043.6 hPa Calm   1.0 mph /  1.6 km/h 73 % 0.00 in /  0 mm
06:34 28.1 °F /  -2.2 °C 20.6 °F /  -6.3 °C 30.82 in /  1043.6 hPa Calm   1.0 mph /  1.6 km/h 73 % 0.00 in /  0 mm
06:39 28.0 °F /  -2.2 °C 20.5 °F /  -6.4 °C 30.82 in /  1043.6 hPa Calm   1.0 mph /  1.6 km/h 73 % 0.00 in /  0 mm
06:44 28.0 °F /  -2.2 °C 20.5 °F /  -6.4 °C 30.82 in /  1043.6 hPa Calm   1.0 mph /  1.6 km/h 73 % 0.00 in /  0 mm
06:49 27.9 °F /  -2.3 °C 20.4 °F /  -6.4 °C 30.82 in /  1043.6 hPa Calm   1.0 mph /  1.6 km/h 73 % 0.00 in /  0 mm
06:54 27.9 °F /  -2.3 °C 20.4 °F /  -6.4 °C 30.82 in /  1043.6 hPa Calm   1.0 mph /  1.6 km/h 73 % 0.00 in /  0 mm
06:59 27.9 °F /  -2.3 °C 20.4 °F /  -6.4 °C 30.83 in /  1043.9 hPa NW 1.0 mph /  1.6 km/h 2.0 mph /  3.2 km/h 73 % 0.00 in /  0 mm
07:04 28.0 °F /  -2.2 °C 20.5 °F /  -6.4 °C 30.83 in /  1043.9 hPa Calm   2.0 mph /  3.2 km/h 73 % 0.00 in /  0 mm
07:09 28.1 °F /  -2.2 °C 20.6 °F /  -6.3 °C 30.83 in /  1043.9 hPa Calm   2.0 mph /  3.2 km/h 73 % 0.00 in /  0 mm
07:14 28.0 °F /  -2.2 °C 20.5 °F /  -6.4 °C 30.83 in /  1043.9 hPa Calm   2.0 mph /  3.2 km/h 73 % 0.00 in /  0 mm
07:19 28.0 °F /  -2.2 °C 20.5 °F /  -6.4 °C 30.83 in /  1043.9 hPa Calm   2.0 mph /  3.2 km/h 73 % 0.00 in /  0 mm
07:24 28.0 °F /  -2.2 °C 20.8 °F /  -6.2 °C 30.84 in /  1044.2 hPa Calm   2.0 mph /  3.2 km/h 74 % 0.00 in /  0 mm
07:29 28.0 °F /  -2.2 °C 20.8 °F /  -6.2 °C 30.84 in /  1044.2 hPa Calm   3.0 mph /  4.8 km/h 74 % 0.00 in /  0 mm
07:34 28.0 °F /  -2.2 °C 20.8 °F /  -6.2 °C 30.85 in /  1044.6 hPa Calm   3.0 mph /  4.8 km/h 74 % 0.00 in /  0 mm
07:39 28.0 °F /  -2.2 °C 20.8 °F /  -6.2 °C 30.85 in /  1044.6 hPa Calm   3.0 mph /  4.8 km/h 74 % 0.00 in /  0 mm
07:44 28.3 °F /  -2.1 °C 21.1 °F /  -6.1 °C 30.85 in /  1044.6 hPa WSW 2.0 mph /  3.2 km/h 4.0 mph /  6.4 km/h 74 % 0.00 in /  0 mm
07:49 28.5 °F /  -1.9 °C 21.3 °F /  -5.9 °C 30.85 in /  1044.6 hPa West 1.0 mph /  1.6 km/h 4.0 mph /  6.4 km/h 74 % 0.00 in /  0 mm
07:54 28.7 °F /  -1.8 °C 20.9 °F /  -6.2 °C 30.84 in /  1044.2 hPa WNW 1.0 mph /  1.6 km/h 7.0 mph /  11.3 km/h 72 % 0.00 in /  0 mm
07:59 28.9 °F /  -1.7 °C 20.4 °F /  -6.4 °C 30.85 in /  1044.6 hPa Calm   7.0 mph /  11.3 km/h 70 % 0.00 in /  0 mm
08:04 29.1 °F /  -1.6 °C 20.3 °F /  -6.5 °C 30.85 in /  1044.6 hPa Calm   7.0 mph /  11.3 km/h 69 % 0.00 in /  0 mm
08:09 29.3 °F /  -1.5 °C 20.4 °F /  -6.4 °C 30.85 in /  1044.6 hPa Calm   7.0 mph /  11.3 km/h 69 % 0.00 in /  0 mm
08:14 29.5 °F /  -1.4 °C 20.6 °F /  -6.3 °C 30.85 in /  1044.6 hPa Calm   7.0 mph /  11.3 km/h 69 % 0.00 in /  0 mm
08:19 29.7 °F /  -1.3 °C 20.5 °F /  -6.4 °C 30.85 in /  1044.6 hPa ENE 1.0 mph /  1.6 km/h 4.0 mph /  6.4 km/h 68 % 0.00 in /  0 mm
08:24 29.8 °F /  -1.2 °C 20.6 °F /  -6.3 °C 30.85 in /  1044.6 hPa Calm   4.0 mph /  6.4 km/h 68 % 0.00 in /  0 mm
08:29 29.9 °F /  -1.2 °C 20.3 °F /  -6.5 °C 30.85 in /  1044.6 hPa NNE 2.0 mph /  3.2 km/h 9.0 mph /  14.5 km/h 67 % 0.00 in /  0 mm
08:34 30.0 °F /  -1.1 °C 20.4 °F /  -6.4 °C 30.85 in /  1044.6 hPa Calm   9.0 mph /  14.5 km/h 67 % 0.00 in /  0 mm
08:39 30.2 °F /  -1 °C 20.6 °F /  -6.3 °C 30.85 in /  1044.6 hPa Calm   9.0 mph /  14.5 km/h 67 % 0.00 in /  0 mm
08:44 30.3 °F /  -0.9 °C 20.7 °F /  -6.3 °C 30.85 in /  1044.6 hPa NE 1.0 mph /  1.6 km/h 9.0 mph /  14.5 km/h 67 % 0.00 in /  0 mm
08:49 30.4 °F /  -0.9 °C 20.8 °F /  -6.2 °C 30.85 in /  1044.6 hPa Calm   6.0 mph /  9.7 km/h 67 % 0.00 in /  0 mm
08:54 30.5 °F /  -0.8 °C 20.9 °F /  -6.2 °C 30.85 in /  1044.6 hPa Calm   6.0 mph /  9.7 km/h 67 % 0.00 in /  0 mm
08:59 30.6 °F /  -0.8 °C 21.0 °F /  -6.1 °C 30.85 in /  1044.6 hPa Calm   5.0 mph /  8 km/h 67 % 0.00 in /  0 mm
09:04 30.8 °F /  -0.7 °C 21.5 °F /  -5.8 °C 30.85 in /  1044.6 hPa Calm   5.0 mph /  8 km/h 68 % 0.00 in /  0 mm
09:09 31.0 °F /  -0.6 °C 23.1 °F /  -4.9 °C 30.85 in /  1044.6 hPa East 1.0 mph /  1.6 km/h 4.0 mph /  6.4 km/h 72 % 0.00 in /  0 mm
09:14 31.1 °F /  -0.5 °C 21.5 °F /  -5.8 °C 30.85 in /  1044.6 hPa Calm   6.0 mph /  9.7 km/h 67 % 0.00 in /  0 mm
09:19 31.3 °F /  -0.4 °C 21.3 °F /  -5.9 °C 30.85 in /  1044.6 hPa Calm   6.0 mph /  9.7 km/h 66 % 0.00 in /  0 mm
09:24 31.4 °F /  -0.3 °C 21.4 °F /  -5.9 °C 30.85 in /  1044.6 hPa Calm   8.0 mph /  12.9 km/h 66 % 0.00 in /  0 mm
09:29 31.5 °F /  -0.3 °C 21.5 °F /  -5.8 °C 30.85 in /  1044.6 hPa Calm   8.0 mph /  12.9 km/h 66 % 0.00 in /  0 mm
09:34 31.6 °F /  -0.2 °C 21.6 °F /  -5.8 °C 30.85 in /  1044.6 hPa Calm   8.0 mph /  12.9 km/h 66 % 0.00 in /  0 mm
09:39 31.8 °F /  -0.1 °C 21.8 °F /  -5.7 °C 30.85 in /  1044.6 hPa NW 1.0 mph /  1.6 km/h 8.0 mph /  12.9 km/h 66 % 0.00 in /  0 mm
09:44 32.0 °F /  0 °C 21.6 °F /  -5.8 °C 30.85 in /  1044.6 hPa East 5.0 mph /  8 km/h 7.0 mph /  11.3 km/h 65 % 0.00 in /  0 mm
09:49 32.2 °F /  0.1 °C 21.8 °F /  -5.7 °C 30.85 in /  1044.6 hPa Calm   7.0 mph /  11.3 km/h 65 % 0.00 in /  0 mm
09:54 32.3 °F /  0.2 °C 21.5 °F /  -5.8 °C 30.86 in /  1044.9 hPa East 1.0 mph /  1.6 km/h 6.0 mph /  9.7 km/h 64 % 0.00 in /  0 mm
09:59 32.6 °F /  0.3 °C 21.8 °F /  -5.7 °C 30.86 in /  1044.9 hPa Calm   7.0 mph /  11.3 km/h 64 % 0.00 in /  0 mm
10:04 32.9 °F /  0.5 °C 22.1 °F /  -5.5 °C 30.86 in /  1044.9 hPa East 3.0 mph /  4.8 km/h 7.0 mph /  11.3 km/h 64 % 0.00 in /  0 mm
10:09 33.1 °F /  0.6 °C 21.9 °F /  -5.6 °C 30.86 in /  1044.9 hPa East 7.0 mph /  11.3 km/h 8.0 mph /  12.9 km/h 63 % 0.00 in /  0 mm
10:14 33.2 °F /  0.7 °C 22.0 °F /  -5.6 °C 30.86 in /  1044.9 hPa Calm   9.0 mph /  14.5 km/h 63 % 0.00 in /  0 mm
10:19 33.3 °F /  0.7 °C 21.3 °F /  -5.9 °C 30.86 in /  1044.9 hPa East 2.0 mph /  3.2 km/h 9.0 mph /  14.5 km/h 61 % 0.00 in /  0 mm
10:24 33.5 °F /  0.8 °C 21.9 °F /  -5.6 °C 30.86 in /  1044.9 hPa East 2.0 mph /  3.2 km/h 9.0 mph /  14.5 km/h 62 % 0.00 in /  0 mm
10:29 33.5 °F /  0.8 °C 21.9 °F /  -5.6 °C 30.86 in /  1044.9 hPa Calm   9.0 mph /  14.5 km/h 62 % 0.00 in /  0 mm
10:34 33.6 °F /  0.9 °C 22.4 °F /  -5.3 °C 30.85 in /  1044.6 hPa ESE 5.0 mph /  8 km/h 9.0 mph /  14.5 km/h 63 % 0.00 in /  0 mm
10:39 33.8 °F /  1 °C 22.6 °F /  -5.2 °C 30.85 in /  1044.6 hPa NE 1.0 mph /  1.6 km/h 9.0 mph /  14.5 km/h 63 % 0.00 in /  0 mm
10:44 33.7 °F /  0.9 °C 22.1 °F /  -5.5 °C 30.85 in /  1044.6 hPa East 5.0 mph /  8 km/h 9.0 mph /  14.5 km/h 62 % 0.00 in /  0 mm
10:49 33.8 °F /  1 °C 22.6 °F /  -5.2 °C 30.84 in /  1044.2 hPa Calm   9.0 mph /  14.5 km/h 63 % 0.00 in /  0 mm
10:54 33.9 °F /  1.1 °C 22.3 °F /  -5.4 °C 30.84 in /  1044.2 hPa ESE 7.0 mph /  11.3 km/h 7.0 mph /  11.3 km/h 62 % 0.00 in /  0 mm
10:59 34.0 °F /  1.1 °C 23.2 °F /  -4.9 °C 30.84 in /  1044.2 hPa ESE 9.0 mph /  14.5 km/h 9.0 mph /  14.5 km/h 64 % 0.00 in /  0 mm
11:04 34.1 °F /  1.2 °C 22.5 °F /  -5.3 °C 30.83 in /  1043.9 hPa Calm   10.0 mph /  16.1 km/h 62 % 0.00 in /  0 mm
11:09 34.3 °F /  1.3 °C 23.1 °F /  -4.9 °C 30.83 in /  1043.9 hPa East 2.0 mph /  3.2 km/h 10.0 mph /  16.1 km/h 63 % 0.00 in /  0 mm
11:14 34.3 °F /  1.3 °C 22.7 °F /  -5.2 °C 30.83 in /  1043.9 hPa Calm   10.0 mph /  16.1 km/h 62 % 0.00 in /  0 mm
11:19 34.4 °F /  1.3 °C 22.8 °F /  -5.1 °C 30.83 in /  1043.9 hPa East 2.0 mph /  3.2 km/h 10.0 mph /  16.1 km/h 62 % 0.00 in /  0 mm
11:24 34.7 °F /  1.5 °C 23.1 °F /  -4.9 °C 30.83 in /  1043.9 hPa East 1.0 mph /  1.6 km/h 7.0 mph /  11.3 km/h 62 % 0.00 in /  0 mm
11:29 34.8 °F /  1.6 °C 23.2 °F /  -4.9 °C 30.83 in /  1043.9 hPa Calm   6.0 mph /  9.7 km/h 62 % 0.00 in /  0 mm
11:34 34.9 °F /  1.6 °C 22.9 °F /  -5.1 °C 30.83 in /  1043.9 hPa Calm   6.0 mph /  9.7 km/h 61 % 0.00 in /  0 mm
11:39 34.8 °F /  1.6 °C 22.4 °F /  -5.3 °C 30.83 in /  1043.9 hPa East 5.0 mph /  8 km/h 7.0 mph /  11.3 km/h 60 % 0.00 in /  0 mm
11:44 34.9 °F /  1.6 °C 22.9 °F /  -5.1 °C 30.83 in /  1043.9 hPa East 1.0 mph /  1.6 km/h 10.0 mph /  16.1 km/h 61 % 0.00 in /  0 mm
11:49 34.9 °F /  1.6 °C 22.1 °F /  -5.5 °C 30.82 in /  1043.6 hPa NE 1.0 mph /  1.6 km/h 10.0 mph /  16.1 km/h 59 % 0.00 in /  0 mm
11:54 35.0 °F /  1.7 °C 22.6 °F /  -5.2 °C 30.82 in /  1043.6 hPa ENE 2.0 mph /  3.2 km/h 10.0 mph /  16.1 km/h 60 % 0.00 in /  0 mm
11:59 35.2 °F /  1.8 °C 22.3 °F /  -5.4 °C 30.82 in /  1043.6 hPa ENE 1.0 mph /  1.6 km/h 7.0 mph /  11.3 km/h 59 % 0.00 in /  0 mm
12:04 35.2 °F /  1.8 °C 22.8 °F /  -5.1 °C 30.82 in /  1043.6 hPa NNE 2.0 mph /  3.2 km/h 7.0 mph /  11.3 km/h 60 % 0.00 in /  0 mm
12:09 35.4 °F /  1.9 °C 22.9 °F /  -5.1 °C 30.82 in /  1043.6 hPa Calm   7.0 mph /  11.3 km/h 60 % 0.00 in /  0 mm
12:14 35.5 °F /  1.9 °C 22.6 °F /  -5.2 °C 30.82 in /  1043.6 hPa Calm   7.0 mph /  11.3 km/h 59 % 0.00 in /  0 mm
12:19 35.7 °F /  2.1 °C 23.2 °F /  -4.9 °C 30.81 in /  1043.2 hPa North 1.0 mph /  1.6 km/h 4.0 mph /  6.4 km/h 60 % 0.00 in /  0 mm
12:24 35.7 °F /  2.1 °C 23.2 °F /  -4.9 °C 30.81 in /  1043.2 hPa Calm   4.0 mph /  6.4 km/h 60 % 0.00 in /  0 mm
12:29 35.9 °F /  2.2 °C 23.4 °F /  -4.8 °C 30.81 in /  1043.2 hPa Calm   4.0 mph /  6.4 km/h 60 % 0.00 in /  0 mm
12:34 36.1 °F /  2.3 °C 23.6 °F /  -4.7 °C 30.81 in /  1043.2 hPa Calm   3.0 mph /  4.8 km/h 60 % 0.00 in /  0 mm
12:39 36.4 °F /  2.4 °C 23.9 °F /  -4.5 °C 30.81 in /  1043.2 hPa ESE 1.0 mph /  1.6 km/h 8.0 mph /  12.9 km/h 60 % 0.00 in /  0 mm
12:44 36.6 °F /  2.6 °C 23.3 °F /  -4.8 °C 30.81 in /  1043.2 hPa East 1.0 mph /  1.6 km/h 8.0 mph /  12.9 km/h 58 % 0.00 in /  0 mm
12:49 36.6 °F /  2.6 °C 23.7 °F /  -4.6 °C 30.81 in /  1043.2 hPa Calm   8.0 mph /  12.9 km/h 59 % 0.00 in /  0 mm
12:54 37.0 °F /  2.8 °C 24.0 °F /  -4.4 °C 30.80 in /  1042.9 hPa Calm   8.0 mph /  12.9 km/h 59 % 0.00 in /  0 mm
12:59 37.5 °F /  3.1 °C 24.1 °F /  -4.4 °C 30.80 in /  1042.9 hPa Calm   8.0 mph /  12.9 km/h 58 % 0.00 in /  0 mm
13:04 37.8 °F /  3.2 °C 24.0 °F /  -4.4 °C 30.80 in /  1042.9 hPa East 5.0 mph /  8 km/h 10.0 mph /  16.1 km/h 57 % 0.00 in /  0 mm
13:09 37.7 °F /  3.2 °C 23.9 °F /  -4.5 °C 30.79 in /  1042.5 hPa Calm   10.0 mph /  16.1 km/h 57 % 0.00 in /  0 mm
13:14 37.7 °F /  3.2 °C 24.3 °F /  -4.3 °C 30.79 in /  1042.5 hPa ESE 1.0 mph /  1.6 km/h 10.0 mph /  16.1 km/h 58 % 0.00 in /  0 mm
13:19 37.6 °F /  3.1 °C 23.8 °F /  -4.6 °C 30.79 in /  1042.5 hPa East 5.0 mph /  8 km/h 10.0 mph /  16.1 km/h 57 % 0.00 in /  0 mm
13:24 37.5 °F /  3.1 °C 24.1 °F /  -4.4 °C 30.78 in /  1042.2 hPa Calm   8.0 mph /  12.9 km/h 58 % 0.00 in /  0 mm
13:29 37.9 °F /  3.3 °C 24.5 °F /  -4.2 °C 30.78 in /  1042.2 hPa ESE 3.0 mph /  4.8 km/h 10.0 mph /  16.1 km/h 58 % 0.00 in /  0 mm
13:34 38.0 °F /  3.3 °C 24.6 °F /  -4.1 °C 30.77 in /  1041.9 hPa ESE 1.0 mph /  1.6 km/h 10.0 mph /  16.1 km/h 58 % 0.00 in /  0 mm
13:39 38.1 °F /  3.4 °C 24.7 °F /  -4.1 °C 30.77 in /  1041.9 hPa East 2.0 mph /  3.2 km/h 10.0 mph /  16.1 km/h 58 % 0.00 in /  0 mm
13:44 38.1 °F /  3.4 °C 24.7 °F /  -4.1 °C 30.77 in /  1041.9 hPa East 2.0 mph /  3.2 km/h 10.0 mph /  16.1 km/h 58 % 0.00 in /  0 mm
13:49 38.2 °F /  3.4 °C 24.3 °F /  -4.3 °C 30.77 in /  1041.9 hPa Calm   8.0 mph /  12.9 km/h 57 % 0.00 in /  0 mm
13:54 38.3 °F /  3.5 °C 24.4 °F /  -4.2 °C 30.77 in /  1041.9 hPa ESE 1.0 mph /  1.6 km/h 8.0 mph /  12.9 km/h 57 % 0.00 in /  0 mm
13:59 38.3 °F /  3.5 °C 24.9 °F /  -3.9 °C 30.77 in /  1041.9 hPa East 2.0 mph /  3.2 km/h 8.0 mph /  12.9 km/h 58 % 0.00 in /  0 mm
14:04 38.4 °F /  3.6 °C 24.9 °F /  -3.9 °C 30.77 in /  1041.9 hPa ESE 3.0 mph /  4.8 km/h 7.0 mph /  11.3 km/h 58 % 0.00 in /  0 mm
14:09 38.4 °F /  3.6 °C 24.9 °F /  -3.9 °C 30.77 in /  1041.9 hPa East 6.0 mph /  9.7 km/h 7.0 mph /  11.3 km/h 58 % 0.00 in /  0 mm
14:14 38.2 °F /  3.4 °C 24.3 °F /  -4.3 °C 30.78 in /  1042.2 hPa Calm   8.0 mph /  12.9 km/h 57 % 0.00 in /  0 mm
14:19 38.1 °F /  3.4 °C 24.2 °F /  -4.3 °C 30.77 in /  1041.9 hPa Calm   8.0 mph /  12.9 km/h 57 % 0.00 in /  0 mm
14:24 38.0 °F /  3.3 °C 25.0 °F /  -3.9 °C 30.77 in /  1041.9 hPa Calm   8.0 mph /  12.9 km/h 59 % 0.00 in /  0 mm
14:29 38.0 °F /  3.3 °C 24.6 °F /  -4.1 °C 30.77 in /  1041.9 hPa ESE 1.0 mph /  1.6 km/h 6.0 mph /  9.7 km/h 58 % 0.00 in /  0 mm
14:34 38.1 °F /  3.4 °C 24.7 °F /  -4.1 °C 30.77 in /  1041.9 hPa Calm   6.0 mph /  9.7 km/h 58 % 0.00 in /  0 mm
14:39 38.1 °F /  3.4 °C 24.7 °F /  -4.1 °C 30.76 in /  1041.5 hPa Calm   6.0 mph /  9.7 km/h 58 % 0.00 in /  0 mm
14:44 37.9 °F /  3.3 °C 24.5 °F /  -4.2 °C 30.76 in /  1041.5 hPa Calm   6.0 mph /  9.7 km/h 58 % 0.00 in /  0 mm
14:49 37.8 °F /  3.2 °C 24.8 °F /  -4 °C 30.76 in /  1041.5 hPa Calm   6.0 mph /  9.7 km/h 59 % 0.00 in /  0 mm
14:54 37.8 °F /  3.2 °C 24.8 °F /  -4 °C 30.76 in /  1041.5 hPa East 2.0 mph /  3.2 km/h 5.0 mph /  8 km/h 59 % 0.00 in /  0 mm
14:59 37.9 °F /  3.3 °C 25.3 °F /  -3.7 °C 30.75 in /  1041.2 hPa East 1.0 mph /  1.6 km/h 6.0 mph /  9.7 km/h 60 % 0.00 in /  0 mm
15:04 38.0 °F /  3.3 °C 25.4 °F /  -3.7 °C 30.75 in /  1041.2 hPa East 1.0 mph /  1.6 km/h 6.0 mph /  9.7 km/h 60 % 0.00 in /  0 mm
15:09 38.0 °F /  3.3 °C 25.4 °F /  -3.7 °C 30.75 in /  1041.2 hPa East 1.0 mph /  1.6 km/h 9.0 mph /  14.5 km/h 60 % 0.00 in /  0 mm
15:14 38.0 °F /  3.3 °C 25.4 °F /  -3.7 °C 30.75 in /  1041.2 hPa Calm   9.0 mph /  14.5 km/h 60 % 0.00 in /  0 mm
15:19 38.1 °F /  3.4 °C 25.5 °F /  -3.6 °C 30.75 in /  1041.2 hPa Calm   9.0 mph /  14.5 km/h 60 % 0.00 in /  0 mm
15:24 38.2 °F /  3.4 °C 25.2 °F /  -3.8 °C 30.75 in /  1041.2 hPa Calm   7.0 mph /  11.3 km/h 59 % 0.00 in /  0 mm
15:29 38.0 °F /  3.3 °C 25.0 °F /  -3.9 °C 30.76 in /  1041.5 hPa Calm   4.0 mph /  6.4 km/h 59 % 0.00 in /  0 mm
15:34 37.9 °F /  3.3 °C 24.9 °F /  -3.9 °C 30.76 in /  1041.5 hPa Calm   4.0 mph /  6.4 km/h 59 % 0.00 in /  0 mm
15:39 37.9 °F /  3.3 °C 25.3 °F /  -3.7 °C 30.76 in /  1041.5 hPa Calm   4.0 mph /  6.4 km/h 60 % 0.00 in /  0 mm
15:44 37.8 °F /  3.2 °C 25.2 °F /  -3.8 °C 30.76 in /  1041.5 hPa Calm   3.0 mph /  4.8 km/h 60 % 0.00 in /  0 mm
15:49 37.9 °F /  3.3 °C 25.3 °F /  -3.7 °C 30.75 in /  1041.2 hPa Calm   3.0 mph /  4.8 km/h 60 % 0.00 in /  0 mm
15:54 37.9 °F /  3.3 °C 25.3 °F /  -3.7 °C 30.75 in /  1041.2 hPa Calm   3.0 mph /  4.8 km/h 60 % 0.00 in /  0 mm
15:59 37.9 °F /  3.3 °C 25.3 °F /  -3.7 °C 30.75 in /  1041.2 hPa SE 2.0 mph /  3.2 km/h 3.0 mph /  4.8 km/h 60 % 0.00 in /  0 mm
16:04 37.9 °F /  3.3 °C 25.7 °F /  -3.5 °C 30.75 in /  1041.2 hPa Calm   3.0 mph /  4.8 km/h 61 % 0.00 in /  0 mm
16:09 37.9 °F /  3.3 °C 25.7 °F /  -3.5 °C 30.74 in /  1040.9 hPa Calm   3.0 mph /  4.8 km/h 61 % 0.00 in /  0 mm
16:14 38.0 °F /  3.3 °C 25.8 °F /  -3.4 °C 30.75 in /  1041.2 hPa Calm   3.0 mph /  4.8 km/h 61 % 0.00 in /  0 mm
16:19 38.0 °F /  3.3 °C 25.8 °F /  -3.4 °C 30.75 in /  1041.2 hPa Calm   2.0 mph /  3.2 km/h 61 % 0.00 in /  0 mm
16:24 38.1 °F /  3.4 °C 25.9 °F /  -3.4 °C 30.75 in /  1041.2 hPa Calm   2.0 mph /  3.2 km/h 61 % 0.00 in /  0 mm
16:29 38.2 °F /  3.4 °C 26.0 °F /  -3.3 °C 30.75 in /  1041.2 hPa Calm   2.0 mph /  3.2 km/h 61 % 0.00 in /  0 mm
16:34 38.1 °F /  3.4 °C 25.5 °F /  -3.6 °C 30.75 in /  1041.2 hPa South 2.0 mph /  3.2 km/h 3.0 mph /  4.8 km/h 60 % 0.00 in /  0 mm
16:39 38.1 °F /  3.4 °C 25.9 °F /  -3.4 °C 30.75 in /  1041.2 hPa Calm   4.0 mph /  6.4 km/h 61 % 0.00 in /  0 mm
16:44 38.1 °F /  3.4 °C 25.9 °F /  -3.4 °C 30.75 in /  1041.2 hPa ESE 3.0 mph /  4.8 km/h 4.0 mph /  6.4 km/h 61 % 0.00 in /  0 mm
16:49 38.0 °F /  3.3 °C 25.8 °F /  -3.4 °C 30.74 in /  1040.9 hPa Calm   4.0 mph /  6.4 km/h 61 % 0.00 in /  0 mm
16:54 37.9 °F /  3.3 °C 25.7 °F /  -3.5 °C 30.74 in /  1040.9 hPa Calm   3.0 mph /  4.8 km/h 61 % 0.00 in /  0 mm
16:59 37.9 °F /  3.3 °C 25.7 °F /  -3.5 °C 30.74 in /  1040.9 hPa Calm   4.0 mph /  6.4 km/h 61 % 0.00 in /  0 mm
17:04 37.9 °F /  3.3 °C 26.1 °F /  -3.3 °C 30.74 in /  1040.9 hPa Calm   4.0 mph /  6.4 km/h 62 % 0.00 in /  0 mm
17:09 37.9 °F /  3.3 °C 26.1 °F /  -3.3 °C 30.74 in /  1040.9 hPa Calm   4.0 mph /  6.4 km/h 62 % 0.00 in /  0 mm
17:14 37.8 °F /  3.2 °C 26.0 °F /  -3.3 °C 30.74 in /  1040.9 hPa Calm   4.0 mph /  6.4 km/h 62 % 0.00 in /  0 mm
17:19 37.8 °F /  3.2 °C 26.8 °F /  -2.9 °C 30.74 in /  1040.9 hPa Calm   2.0 mph /  3.2 km/h 64 % 0.00 in /  0 mm
17:24 37.7 °F /  3.2 °C 27.1 °F /  -2.7 °C 30.73 in /  1040.5 hPa Calm   2.0 mph /  3.2 km/h 65 % 0.00 in /  0 mm
17:29 37.6 °F /  3.1 °C 27.3 °F /  -2.6 °C 30.73 in /  1040.5 hPa Calm   2.0 mph /  3.2 km/h 66 % 0.00 in /  0 mm
17:34 37.5 °F /  3.1 °C 27.2 °F /  -2.7 °C 30.73 in /  1040.5 hPa Calm   2.0 mph /  3.2 km/h 66 % 0.00 in /  0 mm
17:39 37.5 °F /  3.1 °C 27.2 °F /  -2.7 °C 30.73 in /  1040.5 hPa Calm   3.0 mph /  4.8 km/h 66 % 0.00 in /  0 mm
17:44 37.4 °F /  3 °C 27.2 °F /  -2.7 °C 30.73 in /  1040.5 hPa Calm   3.0 mph /  4.8 km/h 66 % 0.00 in /  0 mm
17:49 37.4 °F /  3 °C 27.2 °F /  -2.7 °C 30.73 in /  1040.5 hPa Calm   3.0 mph /  4.8 km/h 66 % 0.00 in /  0 mm
17:54 37.3 °F /  2.9 °C 27.1 °F /  -2.7 °C 30.73 in /  1040.5 hPa Calm   3.0 mph /  4.8 km/h 66 % 0.00 in /  0 mm
17:59 37.3 °F /  2.9 °C 27.1 °F /  -2.7 °C 30.73 in /  1040.5 hPa Calm   2.0 mph /  3.2 km/h 66 % 0.00 in /  0 mm
18:04 37.3 °F /  2.9 °C 27.1 °F /  -2.7 °C 30.73 in /  1040.5 hPa Calm   2.0 mph /  3.2 km/h 66 % 0.00 in /  0 mm
18:09 37.3 °F /  2.9 °C 27.4 °F /  -2.6 °C 30.73 in /  1040.5 hPa Calm   2.0 mph /  3.2 km/h 67 % 0.00 in /  0 mm
18:14 37.3 °F /  2.9 °C 27.4 °F /  -2.6 °C 30.72 in /  1040.2 hPa Calm   2.0 mph /  3.2 km/h 67 % 0.00 in /  0 mm
18:19 37.3 °F /  2.9 °C 27.4 °F /  -2.6 °C 30.72 in /  1040.2 hPa ESE 2.0 mph /  3.2 km/h 2.0 mph /  3.2 km/h 67 % 0.00 in /  0 mm
18:24 37.3 °F /  2.9 °C 27.4 °F /  -2.6 °C 30.73 in /  1040.5 hPa Calm   2.0 mph /  3.2 km/h 67 % 0.00 in /  0 mm
18:29 37.3 °F /  2.9 °C 27.8 °F /  -2.3 °C 30.73 in /  1040.5 hPa Calm   2.0 mph /  3.2 km/h 68 % 0.00 in /  0 mm
18:34 37.3 °F /  2.9 °C 27.8 °F /  -2.3 °C 30.73 in /  1040.5 hPa Calm   2.0 mph /  3.2 km/h 68 % 0.00 in /  0 mm
18:39 37.2 °F /  2.9 °C 28.0 °F /  -2.2 °C 30.72 in /  1040.2 hPa Calm   2.0 mph /  3.2 km/h 69 % 0.00 in /  0 mm
18:44 37.2 °F /  2.9 °C 28.0 °F /  -2.2 °C 30.72 in /  1040.2 hPa Calm   3.0 mph /  4.8 km/h 69 % 0.00 in /  0 mm
18:49 37.2 °F /  2.9 °C 28.4 °F /  -2 °C 30.72 in /  1040.2 hPa Calm   3.0 mph /  4.8 km/h 70 % 0.00 in /  0 mm
18:54 37.3 °F /  2.9 °C 28.5 °F /  -1.9 °C 30.72 in /  1040.2 hPa Calm   3.0 mph /  4.8 km/h 70 % 0.00 in /  0 mm
18:59 37.3 °F /  2.9 °C 28.5 °F /  -1.9 °C 30.72 in /  1040.2 hPa Calm   2.0 mph /  3.2 km/h 70 % 0.00 in /  0 mm
19:04 37.2 °F /  2.9 °C 28.7 °F /  -1.8 °C 30.71 in /  1039.8 hPa Calm   2.0 mph /  3.2 km/h 71 % 0.00 in /  0 mm
19:09 37.2 °F /  2.9 °C 28.7 °F /  -1.8 °C 30.71 in /  1039.8 hPa Calm   1.0 mph /  1.6 km/h 71 % 0.00 in /  0 mm
19:14 37.2 °F /  2.9 °C 28.7 °F /  -1.8 °C 30.71 in /  1039.8 hPa Calm   1.0 mph /  1.6 km/h 71 % 0.00 in /  0 mm
19:19 37.1 °F /  2.8 °C 29.0 °F /  -1.7 °C 30.71 in /  1039.8 hPa Calm   2.0 mph /  3.2 km/h 72 % 0.00 in /  0 mm
19:24 37.1 °F /  2.8 °C 29.0 °F /  -1.7 °C 30.70 in /  1039.5 hPa SE 1.0 mph /  1.6 km/h 2.0 mph /  3.2 km/h 72 % 0.00 in /  0 mm
19:29 37.1 °F /  2.8 °C 29.3 °F /  -1.5 °C 30.70 in /  1039.5 hPa ESE 1.0 mph /  1.6 km/h 2.0 mph /  3.2 km/h 73 % 0.00 in /  0 mm
19:34 37.0 °F /  2.8 °C 29.2 °F /  -1.6 °C 30.70 in /  1039.5 hPa Calm   3.0 mph /  4.8 km/h 73 % 0.00 in /  0 mm
19:39 36.9 °F /  2.7 °C 29.4 °F /  -1.4 °C 30.69 in /  1039.2 hPa Calm   3.0 mph /  4.8 km/h 74 % 0.00 in /  0 mm
19:44 36.9 °F /  2.7 °C 29.4 °F /  -1.4 °C 30.69 in /  1039.2 hPa ESE 2.0 mph /  3.2 km/h 4.0 mph /  6.4 km/h 74 % 0.00 in /  0 mm
19:49 36.8 °F /  2.7 °C 29.7 °F /  -1.3 °C 30.69 in /  1039.2 hPa Calm   4.0 mph /  6.4 km/h 75 % 0.00 in /  0 mm
19:54 36.8 °F /  2.7 °C 29.7 °F /  -1.3 °C 30.69 in /  1039.2 hPa Calm   4.0 mph /  6.4 km/h 75 % 0.00 in /  0 mm
19:59 36.7 °F /  2.6 °C 29.6 °F /  -1.3 °C 30.69 in /  1039.2 hPa East 2.0 mph /  3.2 km/h 3.0 mph /  4.8 km/h 75 % 0.00 in /  0 mm
20:04 36.7 °F /  2.6 °C 29.6 °F /  -1.3 °C 30.69 in /  1039.2 hPa ESE 1.0 mph /  1.6 km/h 3.0 mph /  4.8 km/h 75 % 0.00 in /  0 mm
20:09 36.6 °F /  2.6 °C 29.8 °F /  -1.2 °C 30.69 in /  1039.2 hPa Calm   3.0 mph /  4.8 km/h 76 % 0.00 in /  0 mm
20:14 36.6 °F /  2.6 °C 29.8 °F /  -1.2 °C 30.69 in /  1039.2 hPa Calm   3.0 mph /  4.8 km/h 76 % 0.00 in /  0 mm
20:19 36.6 °F /  2.6 °C 29.8 °F /  -1.2 °C 30.69 in /  1039.2 hPa Calm   2.0 mph /  3.2 km/h 76 % 0.00 in /  0 mm
20:24 36.6 °F /  2.6 °C 30.1 °F /  -1.1 °C 30.69 in /  1039.2 hPa Calm   2.0 mph /  3.2 km/h 77 % 0.00 in /  0 mm
20:29 36.5 °F /  2.5 °C 30.0 °F /  -1.1 °C 30.68 in /  1038.8 hPa Calm   3.0 mph /  4.8 km/h 77 % 0.00 in /  0 mm
20:34 36.5 °F /  2.5 °C 30.0 °F /  -1.1 °C 30.68 in /  1038.8 hPa Calm   3.0 mph /  4.8 km/h 77 % 0.00 in /  0 mm
20:39 36.5 °F /  2.5 °C 30.0 °F /  -1.1 °C 30.68 in /  1038.8 hPa Calm   3.0 mph /  4.8 km/h 77 % 0.00 in /  0 mm
20:44 36.4 °F /  2.4 °C 30.2 °F /  -1 °C 30.68 in /  1038.8 hPa Calm   3.0 mph /  4.8 km/h 78 % 0.00 in /  0 mm
20:49 36.4 °F /  2.4 °C 30.2 °F /  -1 °C 30.68 in /  1038.8 hPa Calm   3.0 mph /  4.8 km/h 78 % 0.00 in /  0 mm
20:54 36.4 °F /  2.4 °C 30.2 °F /  -1 °C 30.68 in /  1038.8 hPa Calm   2.0 mph /  3.2 km/h 78 % 0.00 in /  0 mm
20:59 36.4 °F /  2.4 °C 30.2 °F /  -1 °C 30.68 in /  1038.8 hPa Calm   1.0 mph /  1.6 km/h 78 % 0.00 in /  0 mm
21:04 36.4 °F /  2.4 °C 30.5 °F /  -0.8 °C 30.68 in /  1038.8 hPa Calm   1.0 mph /  1.6 km/h 79 % 0.00 in /  0 mm
21:09 36.4 °F /  2.4 °C 30.5 °F /  -0.8 °C 30.67 in /  1038.5 hPa Calm   1.0 mph /  1.6 km/h 79 % 0.00 in /  0 mm
21:14 36.4 °F /  2.4 °C 30.5 °F /  -0.8 °C 30.67 in /  1038.5 hPa Calm   1.0 mph /  1.6 km/h 79 % 0.00 in /  0 mm
21:19 36.4 °F /  2.4 °C 30.5 °F /  -0.8 °C 30.67 in /  1038.5 hPa Calm   1.0 mph /  1.6 km/h 79 % 0.00 in /  0 mm
21:24 36.4 °F /  2.4 °C 30.5 °F /  -0.8 °C 30.67 in /  1038.5 hPa Calm   1.0 mph /  1.6 km/h 79 % 0.00 in /  0 mm
21:29 36.3 °F /  2.4 °C 30.7 °F /  -0.7 °C 30.67 in /  1038.5 hPa Calm   1.0 mph /  1.6 km/h 80 % 0.00 in /  0 mm
21:34 36.3 °F /  2.4 °C 30.7 °F /  -0.7 °C 30.67 in /  1038.5 hPa Calm   1.0 mph /  1.6 km/h 80 % 0.00 in /  0 mm
21:39 36.3 °F /  2.4 °C 30.7 °F /  -0.7 °C 30.67 in /  1038.5 hPa SE 1.0 mph /  1.6 km/h 1.0 mph /  1.6 km/h 80 % 0.00 in /  0 mm
21:44 36.3 °F /  2.4 °C 30.7 °F /  -0.7 °C 30.66 in /  1038.1 hPa Calm   3.0 mph /  4.8 km/h 80 % 0.00 in /  0 mm
21:49 36.3 °F /  2.4 °C 30.7 °F /  -0.7 °C 30.66 in /  1038.1 hPa Calm   3.0 mph /  4.8 km/h 80 % 0.00 in /  0 mm
21:54 36.2 °F /  2.3 °C 30.6 °F /  -0.8 °C 30.65 in /  1037.8 hPa Calm   3.0 mph /  4.8 km/h 80 % 0.00 in /  0 mm
21:59 36.3 °F /  2.4 °C 30.7 °F /  -0.7 °C 30.65 in /  1037.8 hPa Calm   1.0 mph /  1.6 km/h 80 % 0.00 in /  0 mm
22:04 36.2 °F /  2.3 °C 30.6 °F /  -0.8 °C 30.65 in /  1037.8 hPa Calm   1.0 mph /  1.6 km/h 80 % 0.00 in /  0 mm
22:09 36.2 °F /  2.3 °C 30.6 °F /  -0.8 °C 30.65 in /  1037.8 hPa Calm   3.0 mph /  4.8 km/h 80 % 0.00 in /  0 mm
22:14 36.2 °F /  2.3 °C 30.6 °F /  -0.8 °C 30.65 in /  1037.8 hPa Calm   3.0 mph /  4.8 km/h 80 % 0.00 in /  0 mm
22:19 36.2 °F /  2.3 °C 30.6 °F /  -0.8 °C 30.65 in /  1037.8 hPa Calm   3.0 mph /  4.8 km/h 80 % 0.00 in /  0 mm
22:24 36.2 °F /  2.3 °C 30.6 °F /  -0.8 °C 30.65 in /  1037.8 hPa Calm   3.0 mph /  4.8 km/h 80 % 0.00 in /  0 mm
22:29 36.2 °F /  2.3 °C 30.6 °F /  -0.8 °C 30.65 in /  1037.8 hPa Calm   2.0 mph /  3.2 km/h 80 % 0.00 in /  0 mm
22:34 36.2 °F /  2.3 °C 30.3 °F /  -0.9 °C 30.64 in /  1037.5 hPa Calm   1.0 mph /  1.6 km/h 79 % 0.00 in /  0 mm
22:39 36.1 °F /  2.3 °C 30.2 °F /  -1 °C 30.64 in /  1037.5 hPa Calm   1.0 mph /  1.6 km/h 79 % 0.00 in /  0 mm
22:44 36.1 °F /  2.3 °C 30.2 °F /  -1 °C 30.63 in /  1037.1 hPa Calm   1.0 mph /  1.6 km/h 79 % 0.00 in /  0 mm
22:49 36.1 °F /  2.3 °C 30.2 °F /  -1 °C 30.62 in /  1036.8 hPa Calm   2.0 mph /  3.2 km/h 79 % 0.00 in /  0 mm
22:54 36.1 °F /  2.3 °C 30.2 °F /  -1 °C 30.62 in /  1036.8 hPa Calm   2.0 mph /  3.2 km/h 79 % 0.00 in /  0 mm
22:59 36.1 °F /  2.3 °C 30.2 °F /  -1 °C 30.63 in /  1037.1 hPa Calm   2.0 mph /  3.2 km/h 79 % 0.00 in /  0 mm
23:04 36.1 °F /  2.3 °C 30.2 °F /  -1 °C 30.63 in /  1037.1 hPa Calm   2.0 mph /  3.2 km/h 79 % 0.00 in /  0 mm
23:09 36.0 °F /  2.2 °C 30.1 °F /  -1.1 °C 30.63 in /  1037.1 hPa Calm   1.0 mph /  1.6 km/h 79 % 0.00 in /  0 mm
23:14 36.1 °F /  2.3 °C 30.2 °F /  -1 °C 30.63 in /  1037.1 hPa Calm   2.0 mph /  3.2 km/h 79 % 0.00 in /  0 mm
23:19 36.1 °F /  2.3 °C 30.2 °F /  -1 °C 30.63 in /  1037.1 hPa Calm   2.0 mph /  3.2 km/h 79 % 0.00 in /  0 mm
23:24 36.1 °F /  2.3 °C 30.2 °F /  -1 °C 30.63 in /  1037.1 hPa Calm   2.0 mph /  3.2 km/h 79 % 0.00 in /  0 mm
23:29 36.1 °F /  2.3 °C 30.2 °F /  -1 °C 30.62 in /  1036.8 hPa Calm   2.0 mph /  3.2 km/h 79 % 0.00 in /  0 mm
23:34 36.1 °F /  2.3 °C 30.2 °F /  -1 °C 30.62 in /  1036.8 hPa Calm   2.0 mph /  3.2 km/h 79 % 0.00 in /  0 mm
23:39 36.0 °F /  2.2 °C 30.1 °F /  -1.1 °C 30.62 in /  1036.8 hPa Calm   2.0 mph /  3.2 km/h 79 % 0.00 in /  0 mm
23:44 36.1 °F /  2.3 °C 29.9 °F /  -1.2 °C 30.62 in /  1036.8 hPa Calm   2.0 mph /  3.2 km/h 78 % 0.00 in /  0 mm
23:49 36.1 °F /  2.3 °C 30.2 °F /  -1 °C 30.62 in /  1036.8 hPa Calm   2.0 mph /  3.2 km/h 79 % 0.00 in /  0 mm
23:54 36.0 °F /  2.2 °C 30.1 °F /  -1.1 °C 30.61 in /  1036.5 hPa SE 1.0 mph /  1.6 km/h 2.0 mph /  3.2 km/h 79 % 0.00 in /  0 mm
23:59 36.0 °F /  2.2 °C 30.1 °F /  -1.1 °C 30.60 in /  1036.1 hPa Calm   2.0 mph /  3.2 km/h 79 % 0.00 in /  0 mm
MarylandWx.com
Compliments of Weather Underground - 6.5 mb